Time;durP1;ratioP1;P1;durP2;ratioP2;P2;SDS_P1;SDS_P2;PMS_P1;PMS_P2;Temp;Humidity;BMP_temperature;BMP_pressure;BME280_temperature;BME280_humidity;BME280_pressure;Samples;Min_cycle;Max_cycle;Signal;HPM_P1;HPM_P2
2021/10/12 00:00:35;;;;;;;4.70;0.43;;;11.00;99.90;;;;;;4994697;28;20026;-76
2021/10/12 00:03:01;;;;;;;6.97;0.30;;;11.00;99.90;;;;;;4994759;28;20026;-76
2021/10/12 00:05:26;;;;;;;5.88;0.08;;;11.00;99.90;;;;;;4994992;28;20033;-76
2021/10/12 00:07:52;;;;;;;8.40;0.20;;;11.00;99.90;;;;;;5000982;28;20022;-77
2021/10/12 00:10:18;;;;;;;3.03;0.15;;;11.00;99.90;;;;;;4994592;28;20040;-75
2021/10/12 00:12:44;;;;;;;9.73;0.40;;;11.00;99.90;;;;;;4995855;28;20046;-75
2021/10/12 00:15:10;;;;;;;2.85;0.22;;;11.00;99.90;;;;;;4994498;28;20022;-75
2021/10/12 00:17:38;;;;;;;5.75;0.85;;;11.00;99.90;;;;;;4996048;28;20476;-77
2021/10/12 00:20:06;;;;;;;3.50;0.10;;;11.00;99.90;;;;;;4996681;28;20026;-77
2021/10/12 00:22:31;;;;;;;3.50;0.03;;;11.10;99.90;;;;;;4994327;28;20037;-77
2021/10/12 00:24:57;;;;;;;5.63;0.52;;;11.00;99.90;;;;;;4994269;28;20387;-77
2021/10/12 00:27:22;;;;;;;5.63;0.00;;;11.00;99.90;;;;;;4995823;28;20030;-76
2021/10/12 00:29:48;;;;;;;3.55;0.20;;;11.00;99.90;;;;;;4995510;28;20037;-76
2021/10/12 00:32:14;;;;;;;3.55;0.00;;;11.00;99.90;;;;;;4993954;28;20023;-75
2021/10/12 00:34:39;;;;;;;8.68;0.98;;;10.90;99.90;;;;;;4995768;28;20032;-77
2021/10/12 00:37:05;;;;;;;2.80;0.10;;;11.00;99.90;;;;;;4996690;28;20022;-77
2021/10/12 00:39:30;;;;;;;7.03;0.20;;;10.90;99.90;;;;;;4994627;28;20030;-77
2021/10/12 00:41:56;;;;;;;3.15;0.20;;;10.90;99.90;;;;;;4998141;28;20546;-77
2021/10/12 00:44:21;;;;;;;1.45;0.00;;;10.90;99.90;;;;;;4998519;28;20022;-76
2021/10/12 00:46:47;;;;;;;4.82;0.10;;;10.90;99.90;;;;;;4998854;28;20045;-76
2021/10/12 00:49:12;;;;;;;9.13;0.47;;;10.90;99.90;;;;;;4995328;28;20072;-77
2021/10/12 00:51:38;;;;;;;3.90;0.28;;;10.90;99.90;;;;;;4993741;28;20076;-77
2021/10/12 00:54:04;;;;;;;3.90;0.20;;;10.80;99.90;;;;;;4993786;28;20022;-77
2021/10/12 00:56:30;;;;;;;7.50;0.75;;;10.80;99.90;;;;;;4993741;28;20024;-78
2021/10/12 00:58:56;;;;;;;1.75;0.00;;;10.80;99.90;;;;;;4995309;28;20049;-76
2021/10/12 01:01:21;;;;;;;3.83;0.00;;;10.80;99.90;;;;;;4993677;28;20031;-77
2021/10/12 01:03:47;;;;;;;4.90;0.00;;;10.80;99.90;;;;;;4995811;28;20037;-77
2021/10/12 01:06:13;;;;;;;2.72;0.52;;;10.90;99.90;;;;;;4994971;28;20373;-77
2021/10/12 01:08:39;;;;;;;4.60;0.10;;;10.90;99.90;;;;;;4993318;28;20038;-78
2021/10/12 01:11:06;;;;;;;5.80;0.10;;;10.80;99.90;;;;;;4994889;28;20025;-78
2021/10/12 01:13:31;;;;;;;4.28;0.38;;;10.80;99.90;;;;;;4994859;28;20089;-77
2021/10/12 01:15:57;;;;;;;4.38;0.20;;;10.80;99.90;;;;;;4994436;28;20022;-76
2021/10/12 01:18:23;;;;;;;2.60;0.52;;;10.80;99.90;;;;;;5009306;28;20495;-77
2021/10/12 01:20:52;;;;;;;3.28;0.13;;;10.80;99.90;;;;;;5009740;28;20038;-77
2021/10/12 01:23:19;;;;;;;6.70;0.05;;;10.80;99.90;;;;;;4993414;28;20066;-77
2021/10/12 01:25:44;;;;;;;3.70;0.10;;;10.80;99.90;;;;;;4994593;28;20034;-77
2021/10/12 01:28:10;;;;;;;5.38;0.05;;;10.80;99.90;;;;;;4994701;28;20399;-76
2021/10/12 01:30:37;;;;;;;3.70;0.20;;;10.80;99.90;;;;;;4994356;28;20471;-77
2021/10/12 01:33:03;;;;;;;1.55;0.05;;;10.80;99.90;;;;;;4994006;28;20529;-76
2021/10/12 01:35:29;;;;;;;3.17;0.00;;;10.80;99.90;;;;;;4992371;28;20030;-76
2021/10/12 01:37:55;;;;;;;0.55;0.00;;;10.70;99.90;;;;;;5008683;28;20026;-76
2021/10/12 01:40:20;;;;;;;1.27;0.00;;;10.70;99.90;;;;;;4992246;28;20027;-76
2021/10/12 01:42:46;;;;;;;2.25;0.50;;;10.70;99.90;;;;;;4993457;28;20034;-76
2021/10/12 01:45:13;;;;;;;2.67;0.00;;;10.70;99.90;;;;;;4993517;28;20022;-77
2021/10/12 01:47:39;;;;;;;3.60;0.00;;;10.70;99.90;;;;;;4993734;28;20022;-77
2021/10/12 01:50:07;;;;;;;1.75;0.00;;;10.70;99.90;;;;;;4996091;28;20034;-78
2021/10/12 01:52:32;;;;;;;1.50;0.00;;;10.70;99.90;;;;;;4993365;28;20081;-78
2021/10/12 01:54:58;;;;;;;2.60;0.03;;;10.70;99.90;;;;;;5008454;28;20475;-78
2021/10/12 01:57:24;;;;;;;4.25;0.10;;;10.70;99.90;;;;;;4993732;28;20030;-77
2021/10/12 01:59:50;;;;;;;0.90;0.00;;;10.70;99.90;;;;;;4993384;28;20031;-75
2021/10/12 02:02:15;;;;;;;0.10;0.00;;;10.70;99.90;;;;;;4992808;28;20522;-75
2021/10/12 02:04:41;;;;;;;0.20;0.00;;;10.70;99.90;;;;;;4993260;28;20025;-75
2021/10/12 02:07:07;;;;;;;3.17;0.00;;;10.70;99.90;;;;;;4991799;28;20153;-75
2021/10/12 02:09:32;;;;;;;0.55;0.00;;;10.70;99.90;;;;;;4992759;28;20034;-75
2021/10/12 02:11:58;;;;;;;1.17;0.00;;;10.70;99.90;;;;;;4992962;28;20034;-75
2021/10/12 02:14:24;;;;;;;1.90;0.20;;;10.70;99.90;;;;;;4991771;28;20026;-75
2021/10/12 02:16:50;;;;;;;9.70;0.28;;;10.70;99.90;;;;;;4993026;28;20032;-75
2021/10/12 02:19:16;;;;;;;4.68;0.25;;;10.70;99.90;;;;;;4991616;28;20109;-75
2021/10/12 02:21:42;;;;;;;2.38;0.43;;;10.70;99.90;;;;;;4992775;28;20054;-76
2021/10/12 02:24:08;;;;;;;2.05;0.00;;;10.70;99.90;;;;;;4992686;28;20568;-75
2021/10/12 02:26:34;;;;;;;1.20;0.00;;;10.70;99.90;;;;;;4992546;28;20022;-75
2021/10/12 02:28:59;;;;;;;3.28;0.20;;;10.80;99.90;;;;;;4994301;28;20031;-76
2021/10/12 02:31:25;;;;;;;0.75;0.00;;;10.70;99.90;;;;;;5027795;28;20077;-76
2021/10/12 02:33:50;;;;;;;6.00;0.57;;;10.70;99.90;;;;;;4959999;28;1036371;-76
2021/10/12 02:36:16;;;;;;;3.67;0.25;;;10.70;99.90;;;;;;4997407;28;20018;-76
2021/10/12 02:38:42;;;;;;;3.10;0.00;;;10.70;99.90;;;;;;4997064;28;20064;-76
2021/10/12 02:41:08;;;;;;;3.40;0.47;;;10.70;99.90;;;;;;4996172;28;20030;-77
2021/10/12 02:43:33;;;;;;;2.97;0.20;;;10.70;99.90;;;;;;4997036;28;20030;-77
2021/10/12 02:45:59;;;;;;;2.47;0.00;;;10.80;99.90;;;;;;4996099;28;20022;-78
2021/10/12 02:48:25;;;;;;;5.65;0.32;;;10.80;99.90;;;;;;4996051;28;20037;-77
2021/10/12 02:50:51;;;;;;;2.33;0.00;;;10.80;99.90;;;;;;4997267;28;20053;-75
2021/10/12 02:53:17;;;;;;;0.50;0.00;;;10.80;99.90;;;;;;4997431;28;20023;-75
2021/10/12 02:55:44;;;;;;;5.47;0.00;;;10.80;99.90;;;;;;4997285;28;20468;-75
2021/10/12 02:58:09;;;;;;;2.67;0.28;;;10.80;99.90;;;;;;4997321;28;20018;-74
2021/10/12 03:00:35;;;;;;;6.13;0.00;;;10.80;99.90;;;;;;4996989;28;20101;-75
2021/10/12 03:03:01;;;;;;;1.88;0.00;;;10.90;99.90;;;;;;4995999;28;20097;-74
2021/10/12 03:05:26;;;;;;;2.55;0.10;;;10.90;99.90;;;;;;4997361;28;20026;-75
2021/10/12 03:07:52;;;;;;;2.15;0.20;;;10.90;99.90;;;;;;4998217;28;20027;-74
2021/10/12 03:10:18;;;;;;;3.20;0.45;;;10.80;99.90;;;;;;4996880;28;20101;-77
2021/10/12 03:12:43;;;;;;;5.55;0.10;;;10.90;99.90;;;;;;4996394;28;20023;-74
2021/10/12 03:15:09;;;;;;;0.45;0.22;;;10.80;99.90;;;;;;4996559;28;20476;-74
2021/10/12 03:17:34;;;;;;;0.45;0.00;;;10.80;99.90;;;;;;4996984;28;20431;-74
2021/10/12 03:20:00;;;;;;;3.33;0.00;;;10.80;99.90;;;;;;4995336;28;20410;-74
2021/10/12 03:22:26;;;;;;;10.68;0.85;;;10.80;99.90;;;;;;4995701;28;20018;-73
2021/10/12 03:24:51;;;;;;;5.05;0.20;;;10.80;99.90;;;;;;4995475;28;20027;-73
2021/10/12 03:27:17;;;;;;;4.95;0.00;;;10.80;99.90;;;;;;4996288;28;20030;-73
2021/10/12 03:29:43;;;;;;;3.50;0.45;;;10.80;99.90;;;;;;4996746;28;20037;-73
2021/10/12 03:32:09;;;;;;;5.13;0.00;;;10.70;99.90;;;;;;4996079;28;20026;-75
2021/10/12 03:34:35;;;;;;;4.63;0.00;;;10.70;99.90;;;;;;4996396;28;20085;-73
2021/10/12 03:37:01;;;;;;;6.65;0.50;;;10.70;99.90;;;;;;4996124;28;20030;-73
2021/10/12 03:39:28;;;;;;;10.30;0.60;;;10.70;99.90;;;;;;4995170;28;20398;-73
2021/10/12 03:41:54;;;;;;;1.92;0.00;;;10.70;99.90;;;;;;4996630;28;20431;-74
2021/10/12 03:44:21;;;;;;;3.03;0.28;;;10.70;99.90;;;;;;4994284;28;20019;-76
2021/10/12 03:46:47;;;;;;;4.05;0.00;;;10.70;99.90;;;;;;4996382;28;20061;-74
2021/10/12 03:49:13;;;;;;;2.75;0.32;;;10.70;99.90;;;;;;4996125;28;20066;-74
2021/10/12 03:51:40;;;;;;;2.88;0.00;;;10.70;99.90;;;;;;4996318;28;20054;-74
2021/10/12 03:54:07;;;;;;;4.85;0.52;;;10.70;99.90;;;;;;4995850;28;20092;-73
2021/10/12 03:56:32;;;;;;;3.40;0.03;;;10.70;99.90;;;;;;4995859;28;20022;-74
2021/10/12 03:58:58;;;;;;;0.73;0.00;;;10.70;99.90;;;;;;4996266;28;20084;-74
2021/10/12 04:01:23;;;;;;;0.82;0.00;;;10.70;99.90;;;;;;4995866;28;20022;-74
2021/10/12 04:03:51;;;;;;;2.47;0.35;;;10.60;99.90;;;;;;4996365;28;20121;-74
2021/10/12 04:06:16;;;;;;;5.28;0.08;;;10.60;99.90;;;;;;4996067;28;20014;-73
2021/10/12 04:08:42;;;;;;;3.17;0.00;;;10.60;99.90;;;;;;4996046;28;20491;-75
2021/10/12 04:11:08;;;;;;;0.57;0.00;;;10.70;99.90;;;;;;4994169;28;20031;-75
2021/10/12 04:13:34;;;;;;;3.67;0.10;;;10.60;99.90;;;;;;4994211;28;20050;-75
2021/10/12 04:15:59;;;;;;;2.63;0.40;;;10.70;99.90;;;;;;4996026;28;20403;-75
2021/10/12 04:18:25;;;;;;;4.47;0.55;;;10.70;99.90;;;;;;4994291;28;20030;-75
2021/10/12 04:20:51;;;;;;;3.70;0.10;;;10.60;99.90;;;;;;4994347;28;20397;-75
2021/10/12 04:23:17;;;;;;;0.98;0.00;;;10.70;99.90;;;;;;4994108;28;20015;-75
2021/10/12 04:25:42;;;;;;;1.17;0.15;;;10.70;99.90;;;;;;4995881;28;20030;-75
2021/10/12 04:28:12;;;;;;;0.90;0.10;;;10.70;99.90;;;;;;4994189;28;20091;-75
2021/10/12 04:30:42;;;;;;;1.75;0.55;;;10.70;99.90;;;;;;4994398;28;20030;-75
2021/10/12 04:33:08;;;;;;;6.45;0.40;;;10.70;99.90;;;;;;4995089;28;20069;-74
2021/10/12 04:35:34;;;;;;;3.20;0.32;;;10.70;99.90;;;;;;4995538;28;20027;-73
2021/10/12 04:38:00;;;;;;;1.88;0.00;;;10.70;99.90;;;;;;4993765;28;20459;-74
2021/10/12 04:40:25;;;;;;;4.22;0.15;;;10.70;99.90;;;;;;4993801;28;20043;-76
2021/10/12 04:42:52;;;;;;;1.05;0.00;;;10.70;99.90;;;;;;4995061;28;20101;-74
2021/10/12 04:45:18;;;;;;;4.97;0.10;;;10.70;99.90;;;;;;4994813;28;20114;-74
2021/10/12 04:47:43;;;;;;;0.77;0.20;;;10.80;99.90;;;;;;4994714;28;20030;-75
2021/10/12 04:50:09;;;;;;;2.40;0.10;;;10.70;99.90;;;;;;4995206;28;20022;-74
2021/10/12 04:52:35;;;;;;;1.05;0.00;;;10.80;99.90;;;;;;4998811;28;20062;-72
2021/10/12 04:55:01;;;;;;;4.07;0.08;;;10.80;99.90;;;;;;5000655;28;20023;-73
2021/10/12 04:57:27;;;;;;;1.42;0.13;;;10.80;99.90;;;;;;4999209;28;20049;-74
2021/10/12 04:59:52;;;;;;;5.05;0.15;;;10.80;99.90;;;;;;5000592;28;20026;-74
2021/10/12 05:02:19;;;;;;;3.03;0.00;;;10.80;99.90;;;;;;4999837;28;20447;-74
2021/10/12 05:04:45;;;;;;;3.90;0.00;;;10.90;99.90;;;;;;4999928;28;20045;-73
2021/10/12 05:07:11;;;;;;;3.25;0.28;;;10.80;99.90;;;;;;4998559;28;20042;-74
2021/10/12 05:09:37;;;;;;;2.83;0.10;;;10.80;99.90;;;;;;4998033;28;20026;-74
2021/10/12 05:12:02;;;;;;;5.18;0.40;;;10.90;99.90;;;;;;5000627;28;20026;-74
2021/10/12 05:14:28;;;;;;;5.68;0.57;;;10.80;99.90;;;;;;4995184;28;20507;-75
2021/10/12 05:16:55;;;;;;;4.18;0.15;;;10.90;99.90;;;;;;4993427;28;20019;-74
2021/10/12 05:19:21;;;;;;;7.53;0.00;;;10.90;99.90;;;;;;4994663;28;20093;-75
2021/10/12 05:21:46;;;;;;;3.67;0.40;;;10.90;99.90;;;;;;4993224;28;20022;-74
2021/10/12 05:24:12;;;;;;;2.40;0.20;;;11.00;99.90;;;;;;4994627;28;20114;-75
2021/10/12 05:26:37;;;;;;;4.63;0.47;;;10.90;99.90;;;;;;4994382;28;20030;-74
2021/10/12 05:29:03;;;;;;;4.15;0.05;;;11.00;99.90;;;;;;4993219;28;20022;-74
2021/10/12 05:31:29;;;;;;;5.05;0.65;;;11.00;99.90;;;;;;4994564;28;20029;-75
2021/10/12 05:33:55;;;;;;;5.40;0.10;;;11.00;99.90;;;;;;4994381;28;20518;-76
2021/10/12 05:36:20;;;;;;;4.03;0.13;;;10.90;99.90;;;;;;4993158;28;20024;-75
2021/10/12 05:38:47;;;;;;;4.80;0.30;;;11.00;99.90;;;;;;4993010;28;20502;-75
2021/10/12 05:41:13;;;;;;;5.40;0.32;;;11.00;99.90;;;;;;4994283;28;20030;-75
2021/10/12 05:43:39;;;;;;;4.97;0.10;;;11.00;99.90;;;;;;4994706;28;20030;-73
2021/10/12 05:46:05;;;;;;;2.47;0.13;;;11.00;99.90;;;;;;4994222;28;20030;-73
2021/10/12 05:48:31;;;;;;;1.17;0.20;;;11.00;99.90;;;;;;4994229;28;20022;-73
2021/10/12 05:50:56;;;;;;;3.53;0.30;;;11.00;99.90;;;;;;4994240;28;20037;-73
2021/10/12 05:53:27;;;;;;;4.07;0.52;;;11.00;99.90;;;;;;4992716;28;20480;-73
2021/10/12 05:56:00;;;;;;;3.42;0.45;;;11.00;99.90;;;;;;4994085;28;20421;-74
2021/10/12 06:00:59;;;;;;;3.15;0.30;;;11.00;99.90;;;;;;4994393;28;20392;-74
2021/10/12 06:03:25;;;;;;;3.35;0.15;;;11.00;99.90;;;;;;4995788;28;20093;-76
2021/10/12 06:05:51;;;;;;;1.55;0.25;;;11.00;99.90;;;;;;4999235;28;20066;-76
2021/10/12 06:08:17;;;;;;;6.15;0.77;;;11.00;99.90;;;;;;4995618;28;20023;-76
2021/10/12 06:10:42;;;;;;;3.65;0.30;;;11.00;99.90;;;;;;4994735;28;20034;-75
2021/10/12 06:13:10;;;;;;;3.95;0.22;;;11.00;99.90;;;;;;4994608;28;20022;-76
2021/10/12 06:15:37;;;;;;;6.35;0.28;;;11.10;99.90;;;;;;4997387;28;20501;-76
2021/10/12 06:18:02;;;;;;;4.63;0.52;;;11.10;99.90;;;;;;4998427;28;20029;-75
2021/10/12 06:20:28;;;;;;;4.32;0.85;;;11.10;99.90;;;;;;4996426;28;20034;-75
2021/10/12 06:22:54;;;;;;;4.70;0.35;;;11.10;99.90;;;;;;4997778;28;20087;-74
2021/10/12 06:25:19;;;;;;;6.22;1.25;;;11.00;99.90;;;;;;4998283;28;20398;-75
2021/10/12 06:27:45;;;;;;;4.13;0.52;;;11.10;99.90;;;;;;4999071;28;20476;-76
2021/10/12 06:30:12;;;;;;;3.85;0.20;;;11.10;99.90;;;;;;4997637;28;20026;-76
2021/10/12 06:32:38;;;;;;;5.10;0.40;;;11.10;99.90;;;;;;4998043;28;20093;-75
2021/10/12 06:35:07;;;;;;;4.55;0.63;;;11.10;99.90;;;;;;4997998;28;20018;-75
2021/10/12 06:37:33;;;;;;;4.93;0.85;;;11.10;99.90;;;;;;4997390;28;20121;-76
2021/10/12 06:39:58;;;;;;;7.07;1.45;;;11.20;99.90;;;;;;4998717;28;20030;-75
2021/10/12 06:42:24;;;;;;;3.55;0.80;;;11.10;99.90;;;;;;4997591;28;20396;-76
2021/10/12 06:44:50;;;;;;;10.93;1.02;;;11.20;99.90;;;;;;4997390;28;20030;-75
2021/10/12 06:47:16;;;;;;;8.63;0.80;;;11.20;99.90;;;;;;4997478;28;20022;-75
2021/10/12 06:49:42;;;;;;;9.57;1.02;;;11.30;99.90;;;;;;4997817;28;20054;-75
2021/10/12 06:52:07;;;;;;;4.53;0.80;;;11.30;99.90;;;;;;4996528;28;20019;-75
2021/10/12 06:54:33;;;;;;;6.60;1.52;;;11.30;99.90;;;;;;4997070;28;20029;-75
2021/10/12 06:57:00;;;;;;;5.07;1.25;;;11.30;99.90;;;;;;4995841;28;20026;-74
2021/10/12 06:59:26;;;;;;;7.22;0.88;;;11.30;99.90;;;;;;4997561;28;20033;-75
2021/10/12 07:01:53;;;;;;;3.70;0.60;;;11.40;99.90;;;;;;4995200;28;20053;-75
2021/10/12 07:04:19;;;;;;;5.15;1.15;;;11.40;99.90;;;;;;4993693;28;20022;-75
2021/10/12 07:06:44;;;;;;;4.28;0.60;;;11.40;99.90;;;;;;4993465;28;20035;-75
2021/10/12 07:09:16;;;;;;;4.97;1.08;;;11.50;99.90;;;;;;4993294;28;20089;-75
2021/10/12 07:11:41;;;;;;;6.88;1.02;;;11.50;99.90;;;;;;4994741;28;20029;-75
2021/10/12 07:14:07;;;;;;;7.55;1.48;;;11.60;99.90;;;;;;4993865;28;20105;-75
2021/10/12 07:16:33;;;;;;;6.35;0.93;;;11.60;99.90;;;;;;4996861;28;20105;-76
2021/10/12 07:18:58;;;;;;;3.65;1.27;;;11.70;99.90;;;;;;4995666;28;20121;-75
2021/10/12 07:21:25;;;;;;;6.50;1.23;;;11.70;99.90;;;;;;4995454;28;20036;-75
2021/10/12 07:23:51;;;;;;;4.00;0.50;;;11.80;99.90;;;;;;4996914;28;20050;-75
2021/10/12 07:26:17;;;;;;;3.28;0.80;;;11.80;99.90;;;;;;4996797;28;20407;-75
2021/10/12 07:28:43;;;;;;;9.18;1.10;;;11.90;99.90;;;;;;4995499;28;20097;-75
2021/10/12 07:31:09;;;;;;;6.78;1.48;;;11.90;99.90;;;;;;4996874;28;20102;-75
2021/10/12 07:33:34;;;;;;;6.47;0.77;;;12.00;99.90;;;;;;4996763;28;20130;-75
2021/10/12 07:36:00;;;;;;;5.72;1.05;;;12.10;99.90;;;;;;4995415;28;20073;-75
2021/10/12 07:38:25;;;;;;;4.20;0.85;;;12.10;99.90;;;;;;4996824;28;20380;-75
2021/10/12 07:40:51;;;;;;;6.50;0.73;;;12.10;99.90;;;;;;4996427;28;20062;-75
2021/10/12 07:43:17;;;;;;;8.82;1.05;;;12.20;99.90;;;;;;4996455;28;20432;-75
2021/10/12 07:45:43;;;;;;;6.35;0.45;;;12.20;99.90;;;;;;4996339;28;20387;-75
2021/10/12 07:48:09;;;;;;;7.22;0.63;;;12.30;99.90;;;;;;4996281;28;20029;-75
2021/10/12 07:50:34;;;;;;;10.88;1.42;;;12.40;99.90;;;;;;4996124;28;20029;-74
2021/10/12 07:53:00;;;;;;;8.55;0.80;;;12.60;99.90;;;;;;4999010;28;20026;-74
2021/10/12 07:57:57;;;;;;;8.90;0.47;;;12.90;99.90;;;;;;5001947;28;20027;-74
2021/10/12 08:00:25;;;;;;;9.80;1.20;;;12.90;99.90;;;;;;5000370;28;20030;-75
2021/10/12 08:02:52;;;;;;;8.68;0.90;;;12.90;99.90;;;;;;5001250;28;20117;-75
2021/10/12 08:05:18;;;;;;;2.10;0.10;;;12.90;99.90;;;;;;5003340;28;20086;-75
2021/10/12 08:07:44;;;;;;;7.28;0.60;;;12.80;99.90;;;;;;5002048;28;20121;-74
2021/10/12 08:10:10;;;;;;;3.35;0.13;;;12.70;99.90;;;;;;5000126;28;20077;-74
2021/10/12 08:12:35;;;;;;;9.82;0.60;;;12.70;99.90;;;;;;5000167;28;20361;-74
2021/10/12 08:15:01;;;;;;;7.70;0.30;;;12.60;99.90;;;;;;4998949;28;20026;-75
2021/10/12 08:17:26;;;;;;;3.35;0.30;;;12.50;99.90;;;;;;4998691;28;20084;-75
2021/10/12 08:19:52;;;;;;;5.40;0.55;;;12.50;99.90;;;;;;5002913;28;20030;-75
2021/10/12 08:22:18;;;;;;;3.13;0.10;;;12.50;99.90;;;;;;5003997;28;20022;-75
2021/10/12 08:24:43;;;;;;;4.93;0.52;;;12.40;99.90;;;;;;5003907;28;20033;-75
2021/10/12 08:27:09;;;;;;;4.75;0.10;;;12.40;99.90;;;;;;4998852;28;20054;-75
2021/10/12 08:29:34;;;;;;;5.90;0.00;;;12.40;99.90;;;;;;4999669;28;20026;-75
2021/10/12 08:32:00;;;;;;;2.67;0.00;;;12.60;99.90;;;;;;4998099;28;20018;-75
2021/10/12 08:34:25;;;;;;;4.90;0.10;;;12.70;99.90;;;;;;4999170;28;20041;-75
2021/10/12 08:36:51;;;;;;;6.90;0.43;;;12.90;99.90;;;;;;4999298;28;20022;-75
2021/10/12 08:39:18;;;;;;;6.15;0.45;;;13.00;99.90;;;;;;4998634;28;20030;-75
2021/10/12 08:41:50;;;;;;;3.08;0.08;;;13.10;99.90;;;;;;4998869;28;20037;-75
2021/10/12 08:44:16;;;;;;;3.13;0.05;;;13.10;99.90;;;;;;4998732;28;20077;-75
2021/10/12 08:46:42;;;;;;;3.17;0.00;;;13.10;99.90;;;;;;4997694;28;20034;-75
2021/10/12 08:49:10;;;;;;;7.60;0.68;;;13.00;99.90;;;;;;4999075;28;20029;-74
2021/10/12 08:51:35;;;;;;;4.38;0.55;;;12.90;99.90;;;;;;4997431;28;20018;-75
2021/10/12 08:54:01;;;;;;;2.00;0.20;;;12.90;99.90;;;;;;4999130;28;20099;-75
2021/10/12 08:56:27;;;;;;;5.35;0.47;;;12.90;99.90;;;;;;4998669;28;20424;-75
2021/10/12 08:58:52;;;;;;;5.05;0.30;;;12.80;99.90;;;;;;4997903;28;20046;-75
2021/10/12 09:01:18;;;;;;;5.68;0.28;;;12.70;99.90;;;;;;4999022;28;20041;-75
2021/10/12 09:06:31;;;;;;;2.45;0.10;;;12.60;99.90;;;;;;4998551;28;20448;-75
2021/10/12 09:09:14;;;;;;;2.90;0.10;;;12.50;99.90;;;;;;4998149;28;20108;-76
2021/10/12 09:11:40;;;;;;;5.72;0.08;;;12.50;99.90;;;;;;4998400;28;20015;-75
2021/10/12 09:14:07;;;;;;;3.30;0.30;;;12.50;99.90;;;;;;4998394;28;20033;-75
2021/10/12 09:16:43;;;;;;;1.83;0.00;;;12.50;99.90;;;;;;4996899;28;20019;-75
2021/10/12 09:19:11;;;;;;;1.85;0.00;;;12.40;99.90;;;;;;4998478;28;20019;-75
2021/10/12 09:21:39;;;;;;;0.85;0.00;;;12.40;99.90;;;;;;4996496;28;20033;-75
2021/10/12 09:24:09;;;;;;;1.02;0.00;;;12.40;99.90;;;;;;4998422;28;20041;-75
2021/10/12 09:26:45;;;;;;;2.40;0.00;;;12.40;99.90;;;;;;4998013;28;20131;-75
2021/10/12 09:29:16;;;;;;;1.10;0.13;;;12.40;99.90;;;;;;4997973;28;20479;-75
2021/10/12 09:31:44;;;;;;;2.58;0.03;;;12.40;99.90;;;;;;4996648;28;20484;-75
2021/10/12 09:34:12;;;;;;;1.05;0.00;;;12.50;99.90;;;;;;4996601;28;20030;-75
2021/10/12 09:36:50;;;;;;;3.93;0.00;;;12.50;99.90;;;;;;4997813;28;20015;-75
2021/10/12 09:39:37;;;;;;;2.00;0.80;;;12.70;99.90;;;;;;4998189;28;20375;-75
2021/10/12 09:42:08;;;;;;;3.45;0.57;;;12.90;99.90;;;;;;4996137;28;20031;-75
2021/10/12 09:44:34;;;;;;;2.58;0.00;;;13.20;99.90;;;;;;4996383;28;20113;-75
2021/10/12 09:47:11;;;;;;;4.07;0.00;;;13.40;99.90;;;;;;4996345;28;20097;-75
2021/10/12 09:49:37;;;;;;;1.75;0.00;;;14.20;99.90;;;;;;4997411;28;20035;-75
2021/10/12 09:52:10;;;;;;;1.95;0.00;;;13.80;99.90;;;;;;4997549;28;20089;-75
2021/10/12 09:54:56;;;;;;;6.65;0.10;;;13.80;99.90;;;;;;4997755;28;20042;-75
2021/10/12 09:57:23;;;;;;;0.98;0.00;;;14.00;99.90;;;;;;4998037;28;20471;-75
2021/10/12 09:59:50;;;;;;;1.60;0.00;;;14.30;99.90;;;;;;4996321;28;20027;-75
2021/10/12 10:02:20;;;;;;;0.73;0.00;;;14.70;99.90;;;;;;4998029;28;20487;-75
2021/10/12 10:04:47;;;;;;;3.83;0.15;;;14.90;99.90;;;;;;4995017;28;20030;-74
2021/10/12 10:07:31;;;;;;;3.00;0.28;;;14.90;99.90;;;;;;4993976;28;20116;-75
2021/10/12 10:10:04;;;;;;;0.98;0.20;;;15.10;99.90;;;;;;4996671;28;20069;-76
2021/10/12 10:12:31;;;;;;;1.65;0.10;;;15.30;99.90;;;;;;4994471;28;20031;-75
2021/10/12 10:14:56;;;;;;;2.65;0.52;;;15.40;99.90;;;;;;4994100;28;20050;-76
2021/10/12 10:17:23;;;;;;;0.20;0.00;;;15.30;99.90;;;;;;4997236;28;20033;-75
2021/10/12 10:19:50;;;;;;;0.95;0.00;;;15.30;99.90;;;;;;4994229;28;20093;-75
2021/10/12 10:22:57;;;;;;;0.60;0.00;;;15.30;99.90;;;;;;4993839;28;20026;-75
2021/10/12 10:25:35;;;;;;;0.55;0.00;;;15.40;99.90;;;;;;4994752;28;20109;-75
2021/10/12 10:28:15;;;;;;;0.63;0.00;;;15.40;99.90;;;;;;4993073;28;20118;-75
2021/10/12 10:31:02;;;;;;;0.90;0.10;;;15.30;99.90;;;;;;4992343;28;20026;-75
2021/10/12 10:33:37;;;;;;;2.97;0.20;;;15.20;99.90;;;;;;4995084;28;20030;-74
2021/10/12 10:36:08;;;;;;;6.70;0.03;;;15.10;99.90;;;;;;4996998;28;20018;-75
2021/10/12 10:38:47;;;;;;;0.65;0.05;;;14.90;99.90;;;;;;4997709;28;20152;-75
2021/10/12 10:41:13;;;;;;;2.67;0.10;;;14.80;99.90;;;;;;4997307;28;20048;-74
2021/10/12 10:43:51;;;;;;;1.30;0.15;;;14.60;99.90;;;;;;4998676;28;20061;-74
2021/10/12 10:46:32;;;;;;;1.55;0.05;;;14.50;99.90;;;;;;4998084;28;20085;-74
2021/10/12 10:49:19;;;;;;;1.25;0.00;;;14.40;99.90;;;;;;4999532;28;20084;-75
2021/10/12 10:52:05;;;;;;;3.35;0.00;;;14.30;99.90;;;;;;5006684;28;20023;-75
2021/10/12 10:54:37;;;;;;;3.08;0.00;;;14.10;99.90;;;;;;5005893;28;20032;-75
2021/10/12 10:57:11;;;;;;;2.45;0.00;;;14.00;99.90;;;;;;5001786;28;20569;-76
2021/10/12 10:59:37;;;;;;;2.00;0.00;;;14.00;99.90;;;;;;5000600;28;20026;-75
2021/10/12 11:02:22;;;;;;;1.60;0.03;;;14.10;99.90;;;;;;5001127;28;20479;-75
2021/10/12 11:04:49;;;;;;;1.55;0.00;;;14.30;99.90;;;;;;5001906;28;20066;-75
2021/10/12 11:07:32;;;;;;;1.55;0.00;;;14.60;99.90;;;;;;5001126;28;20030;-75
2021/10/12 11:09:58;;;;;;;0.00;0.00;;;14.80;99.90;;;;;;5000024;28;20035;-75
2021/10/12 11:12:26;;;;;;;0.20;0.10;;;15.00;99.90;;;;;;5001002;28;20022;-75
2021/10/12 11:14:53;;;;;;;1.75;0.00;;;15.10;99.90;;;;;;5000726;28;20045;-75
2021/10/12 11:17:19;;;;;;;0.00;0.00;;;15.10;99.90;;;;;;5000537;28;20049;-75
2021/10/12 11:20:00;;;;;;;1.45;0.10;;;15.30;99.90;;;;;;5000850;28;20023;-75
2021/10/12 11:22:27;;;;;;;0.52;0.00;;;15.10;99.90;;;;;;5000749;28;20030;-75
2021/10/12 11:24:53;;;;;;;0.00;0.00;;;15.00;99.90;;;;;;5000376;28;20479;-75
2021/10/12 11:27:19;;;;;;;0.82;0.00;;;15.00;99.90;;;;;;5000769;28;20026;-75
2021/10/12 11:29:45;;;;;;;0.57;0.10;;;15.00;99.90;;;;;;5000944;28;20368;-75
2021/10/12 11:32:11;;;;;;;1.50;0.00;;;15.10;99.90;;;;;;4999584;28;20217;-75
2021/10/12 11:34:37;;;;;;;1.35;0.00;;;15.30;99.90;;;;;;5000261;28;20507;-75
2021/10/12 11:37:10;;;;;;;0.00;0.00;;;15.70;99.90;;;;;;5000340;28;20018;-75
2021/10/12 11:39:36;;;;;;;2.90;0.15;;;16.00;99.90;;;;;;5000710;28;20117;-75
2021/10/12 11:42:06;;;;;;;2.55;0.20;;;16.00;99.90;;;;;;4998688;28;20062;-75
2021/10/12 11:44:32;;;;;;;0.90;0.00;;;15.90;99.90;;;;;;4998800;28;20076;-75
2021/10/12 11:47:02;;;;;;;1.08;0.00;;;15.60;99.90;;;;;;4999929;28;20086;-75
2021/10/12 11:49:34;;;;;;;1.00;0.00;;;15.50;99.90;;;;;;5000266;28;20475;-75
2021/10/12 11:52:08;;;;;;;0.20;0.10;;;15.40;99.90;;;;;;4999153;28;20023;-75
2021/10/12 11:54:34;;;;;;;3.17;0.00;;;15.50;99.90;;;;;;5000691;28;20037;-75
2021/10/12 11:57:02;;;;;;;1.95;0.00;;;15.60;99.90;;;;;;4999206;28;20022;-75
2021/10/12 11:59:34;;;;;;;2.30;0.00;;;15.80;99.90;;;;;;5000388;28;20027;-75
2021/10/12 12:02:00;;;;;;;4.18;0.88;;;16.10;99.90;;;;;;4998978;28;20026;-75
2021/10/12 12:04:27;;;;;;;2.03;0.00;;;16.60;99.90;;;;;;5000155;28;20019;-75
2021/10/12 12:06:55;;;;;;;0.35;0.00;;;16.60;99.90;;;;;;5000757;28;20388;-75
2021/10/12 12:09:23;;;;;;;1.35;0.00;;;16.60;99.90;;;;;;5001258;28;20479;-75
2021/10/12 12:11:49;;;;;;;3.92;0.00;;;16.50;99.90;;;;;;4999187;28;20057;-75
2021/10/12 12:14:21;;;;;;;0.65;0.00;;;16.20;99.90;;;;;;4999333;28;20507;-75
2021/10/12 12:16:46;;;;;;;1.85;0.00;;;16.20;99.90;;;;;;5000006;28;20030;-75
2021/10/12 12:19:23;;;;;;;1.88;0.15;;;16.20;99.90;;;;;;5003279;28;20019;-75
2021/10/12 12:21:51;;;;;;;0.88;0.00;;;16.20;99.90;;;;;;5000593;28;20073;-75
2021/10/12 12:24:22;;;;;;;1.40;0.00;;;16.20;99.90;;;;;;5000923;28;20065;-75
2021/10/12 12:26:59;;;;;;;3.00;0.00;;;16.40;99.90;;;;;;4996066;28;20030;-76
2021/10/12 12:29:25;;;;;;;1.13;0.00;;;16.80;99.90;;;;;;4998871;28;20022;-74
2021/10/12 12:31:53;;;;;;;2.20;0.00;;;17.00;99.90;;;;;;4998511;28;20034;-74
2021/10/12 12:34:27;;;;;;;0.47;0.10;;;16.80;99.90;;;;;;5000453;28;20045;-74
2021/10/12 12:36:53;;;;;;;4.35;0.10;;;16.60;99.90;;;;;;4998554;28;20030;-75
2021/10/12 12:39:43;;;;;;;2.53;0.00;;;16.40;99.90;;;;;;4999655;28;20029;-75
2021/10/12 12:42:29;;;;;;;0.68;0.00;;;16.20;99.90;;;;;;5000127;28;20386;-74
2021/10/12 12:45:14;;;;;;;1.42;0.00;;;15.90;99.90;;;;;;5000405;28;20026;-75
2021/10/12 12:47:50;;;;;;;0.75;0.00;;;15.70;99.90;;;;;;5000780;28;20022;-75
2021/10/12 12:50:21;;;;;;;1.02;0.00;;;15.50;99.90;;;;;;5001061;28;20428;-75
2021/10/12 12:52:46;;;;;;;0.60;0.00;;;15.40;99.90;;;;;;5000604;28;20053;-75
2021/10/12 12:55:33;;;;;;;0.68;0.00;;;15.10;99.90;;;;;;4998308;28;20077;-74